Latest Weather Observations for Gold Coast Seaway

IDQ60801

Issued at 2:35 pm EST Saturday 2 August 2014 (issued every 30 minutes, with the page automatically refreshed every 10 minutes)

About weather observations | Map of weather stations | Latest weather observations for QLD | Other Formats
Station Details ID: 040764 Name: GOLD COAST SEAWAY Lat: -27.94 Lon: 153.43 Height: 2.98 m
Data from the previous 72 hours. | See also: Recent months at Gold Coast Seaway
Date/Time
EST
Temp
°C
App
Temp
°C
Dew
Point
Rel
Hum
%
Delta-T
°C
Wind Press
QNH
hPa
Press
MSL
hPa
Rain
since 9 am
mm
Dir
 
Spd
km/h
Gust
km/h
Spd
kts
Gust
kts
02/02:30pm 18.2 8.7 4.0 39 6.7 SE 43 50 23 27 1022.0 - 0.0
02/02:00pm 18.7 9.2 3.7 37 7.0 SE 43 52 23 28 1021.9 1021.9 0.0
02/01:30pm 19.2 11.4 3.0 34 7.5 SSE 33 48 18 26 1021.8 - 0.0
02/01:00pm 19.4 11.4 0.4 28 8.4 SSE 32 43 17 23 1021.9 1021.9 0.0
02/12:30pm 19.7 12.0 -2.6 22 9.3 SSE 28 33 15 18 1022.3 - 0.0
02/12:00pm 18.9 10.4 -3.3 22 9.0 SSE 32 37 17 20 1022.5 1022.5 0.0
02/11:30am 19.1 11.7 -0.8 26 8.6 SSE 28 35 15 19 1022.6 - 0.0
02/11:00am 18.6 10.7 -4.8 20 9.2 SSE 28 33 15 18 1022.6 1022.6 0.0
02/10:30am 18.7 12.7 -1.7 25 8.6 SSE 20 28 11 15 1022.7 - 0.0
02/10:00am 17.6 12.6 -4.3 22 8.6 S 13 19 7 10 1022.8 1022.8 0.0
02/09:30am 16.3 12.1 -3.7 25 7.9 WSW 9 13 5 7 1022.6 - 0.0
02/09:00am 15.9 11.5 -2.6 28 7.4 SSW 11 17 6 9 1022.4 1022.4 0.0
02/08:30am 15.0 10.5 -2.9 29 7.1 SSW 11 17 6 9 1022.1 - 0.0
02/08:00am 14.2 9.4 -2.2 32 6.5 S 13 19 7 10 1021.8 1021.8 0.0
02/07:30am 12.5 8.7 1.5 47 4.7 SSW 11 13 6 7 1021.5 - 0.0
02/07:00am 12.2 7.5 1.2 47 4.6 SSW 15 19 8 10 1020.9 1020.9 0.0
02/06:30am 11.9 8.8 3.4 56 3.8 SW 9 11 5 6 1020.4 - 0.0
02/06:00am 12.1 8.5 2.8 53 4.0 SSW 11 13 6 7 1019.7 1019.7 0.0
02/05:30am 11.8 8.2 2.8 54 3.9 S 11 13 6 7 1019.1 - 0.0
02/05:00am 14.4 10.8 2.9 46 5.1 W 11 17 6 9 1018.7 1018.7 0.0
02/04:30am 12.1 9.1 3.9 57 3.7 SW 9 11 5 6 1018.0 - 0.0
02/04:00am 12.9 10.4 3.6 53 4.2 W 6 9 3 5 1017.7 1017.7 0.0
02/03:30am 14.2 10.4 3.7 49 4.8 W 13 15 7 8 1017.6 - 0.0
02/03:00am 15.1 11.2 3.6 46 5.2 WNW 13 17 7 9 1017.4 1017.4 0.0
02/02:30am 16.6 11.5 3.3 41 6.1 WNW 19 22 10 12 1017.1 - 0.0
02/02:00am 17.3 12.3 3.6 40 6.4 WNW 19 20 10 11 1016.9 1016.9 0.0
02/01:30am 17.5 12.8 3.0 38 6.7 NW 17 22 9 12 1016.8 - 0.0
02/01:00am 17.9 13.5 2.6 36 7.0 W 15 17 8 9 1016.5 1016.5 0.0
02/12:30am 16.7 12.9 5.9 49 5.2 NW 15 17 8 9 1016.3 - 0.0
02/12:00am 15.7 13.5 7.7 59 4.0 W 9 13 5 7 1015.7 1015.7 0.0
 
Date/Time
EST
Temp
°C
App
Temp
°C
Dew
Point
Rel
Hum
%
Delta-T
°C
Wind Press
QNH
hPa
Press
MSL
hPa
Rain
since 9 am
mm
Dir
 
Spd
km/h
Gust
km/h
Spd
kts
Gust
kts
01/11:30pm 16.5 14.2 10.6 68 3.1 W 13 15 7 8 1015.4 - 0.0
01/11:00pm 16.1 15.8 12.7 80 1.9 WNW 6 7 3 4 1015.1 1015.1 0.0
01/10:30pm 17.7 16.6 14.2 80 2.0 WNW 13 17 7 9 1014.8 - 0.0
01/10:00pm 18.5 17.9 16.7 89 1.1 NW 15 19 8 10 1014.2 1014.2 0.0
01/09:30pm 19.0 18.2 17.0 88 1.2 NNW 17 24 9 13 1013.8 - 0.0
01/09:00pm 19.3 17.9 16.9 86 1.5 NNW 20 28 11 15 1013.4 1013.4 0.0
01/08:30pm 19.6 17.7 16.6 83 1.8 N 22 30 12 16 1013.1 - 0.0
01/08:00pm 19.9 17.4 16.2 79 2.2 N 24 35 13 19 1012.9 1012.9 0.0
01/07:30pm 20.0 16.5 15.6 76 2.6 N 28 35 15 19 1012.7 - 0.0
01/07:00pm 20.0 16.9 14.6 71 3.1 N 24 33 13 18 1012.2 1012.2 0.0
01/06:30pm 20.5 17.2 13.9 66 3.8 N 24 33 13 18 1011.8 - 0.0
01/06:00pm 21.0 17.3 12.7 59 4.7 N 24 30 13 16 1011.1 1011.1 0.0
01/05:30pm 21.7 18.6 12.3 55 5.3 N 20 28 11 15 1010.6 - 0.0
01/05:00pm 21.3 18.1 15.4 69 3.5 N 26 32 14 17 1010.3 1010.3 0.0
01/04:30pm 21.8 17.7 15.9 69 3.5 N 32 35 17 19 1010.2 - 0.0
01/04:00pm 22.3 18.8 16.6 70 3.5 N 30 33 16 18 1010.2 1010.2 0.0
01/03:30pm 22.5 19.4 16.5 69 3.6 N 28 33 15 18 1010.2 - 0.0
01/03:00pm 23.9 19.3 13.4 51 6.1 N 30 37 16 20 1010.4 1010.4 0.0
01/02:30pm 22.4 19.6 17.3 73 3.1 NE 28 32 15 17 1010.9 - 0.0
01/02:00pm 23.4 20.5 15.2 60 4.9 NNE 24 32 13 17 1011.3 1011.3 0.0
01/01:30pm 23.3 19.0 14.3 57 5.3 N 30 33 16 18 1011.6 - 0.0
01/01:00pm 23.5 20.1 14.8 58 5.2 NNE 26 30 14 16 1012.1 1012.1 0.0
01/12:30pm 25.1 21.7 11.3 42 7.8 N 20 33 11 18 1012.7 - 0.0
01/12:00pm 24.4 20.2 11.0 43 7.5 NNW 24 35 13 19 1013.3 1013.3 0.0
01/11:30am 23.6 19.8 11.0 45 7.0 N 22 33 12 18 1013.9 - 0.0
01/11:00am 23.2 19.9 11.6 48 6.5 N 20 28 11 15 1014.5 1014.5 0.0
01/10:30am 22.2 19.7 12.2 53 5.6 NNW 17 22 9 12 1014.9 - 0.0
01/10:00am 21.2 18.0 11.8 55 5.2 NNW 20 30 11 16 1015.1 1015.1 0.0
01/09:30am 20.0 17.0 12.0 60 4.5 N 19 26 10 14 1015.6 - 0.0
01/09:00am 19.3 18.1 12.8 66 3.7 NNW 11 17 6 9 1016.0 1016.0 0.0
01/08:30am 17.6 16.0 12.9 74 2.6 N 13 17 7 9 1016.0 - 0.0
01/08:00am 16.4 15.2 12.9 80 1.9 NW 11 13 6 7 1016.0 1016.0 0.0
01/07:30am 15.0 13.8 12.7 86 1.3 NW 11 15 6 8 1016.0 - 0.0
01/07:00am 14.1 12.5 12.7 91 0.8 WNW 13 13 7 7 1016.0 1016.0 0.0
01/06:30am 13.8 12.6 12.9 94 0.5 WNW 11 13 6 7 1015.9 - 0.0
01/06:00am 14.3 13.5 12.9 91 0.8 NW 9 11 5 6 1015.8 1015.8 0.0
01/05:30am 14.4 13.3 13.0 91 0.8 NW 11 13 6 7 1015.8 - 0.0
01/05:00am 14.1 13.1 12.3 89 1.0 WNW 9 11 5 6 1015.7 1015.7 0.0
01/04:30am 14.8 13.9 12.5 86 1.3 WNW 9 13 5 7 1015.7 - 0.0
01/04:00am 15.4 13.8 12.7 84 1.5 NNW 13 13 7 7 1015.4 1015.4 0.0
01/03:30am 15.5 14.3 12.8 84 1.5 NW 11 11 6 6 1015.6 - 0.0
01/03:00am 15.9 14.3 12.8 82 1.7 N 13 15 7 8 1015.7 1015.7 0.0
01/02:30am 16.2 15.0 12.9 81 1.8 NW 11 13 6 7 1016.1 - 0.0
01/02:00am 16.5 14.5 12.8 79 2.0 NW 15 17 8 9 1016.2 1016.2 0.0
01/01:30am 16.9 15.5 13.4 80 2.0 NW 13 15 7 8 1016.2 - 0.0
01/01:00am 17.0 15.7 13.7 81 1.9 NNW 13 17 7 9 1016.3 1016.3 0.0
01/12:30am 17.2 16.0 14.1 82 1.8 NNW 13 17 7 9 1016.7 - 0.0
01/12:00am 17.7 16.3 14.6 82 1.8 NNW 15 22 8 12 1017.0 1017.0 0.0
 
Date/Time
EST
Temp
°C
App
Temp
°C
Dew
Point
Rel
Hum
%
Delta-T
°C
Wind Press
QNH
hPa
Press
MSL
hPa
Rain
since 9 am
mm
Dir
 
Spd
km/h
Gust
km/h
Spd
kts
Gust
kts
31/11:30pm 17.8 16.6 15.1 84 1.6 NNW 15 22 8 12 1017.1 - 0.0
31/11:00pm 17.7 16.8 15.9 89 1.1 NNW 15 19 8 10 1017.1 1017.1 0.0
31/10:30pm 17.3 16.4 14.9 86 1.4 NNW 13 19 7 10 1017.1 - 0.0
31/10:00pm 17.1 15.8 13.8 81 1.9 NNW 13 17 7 9 1017.2 1017.2 0.0
31/09:30pm 17.3 16.3 13.4 78 2.2 NW 11 15 6 8 1017.2 - 0.0
31/09:00pm 17.4 15.7 13.7 79 2.1 NNW 15 17 8 9 1017.2 1017.2 0.0
31/08:30pm 17.7 15.7 14.0 79 2.1 NNW 17 20 9 11 1017.1 - 0.0
31/08:00pm 17.2 15.5 12.5 74 2.6 NW 13 17 7 9 1016.8 1016.8 0.0
31/07:30pm 17.9 16.1 12.1 69 3.2 NW 13 17 7 9 1016.6 - 0.0
31/07:00pm 17.9 17.0 12.6 71 2.9 NW 9 13 5 7 1016.2 1016.2 0.0
31/06:30pm 18.4 17.5 13.7 74 2.7 NNW 11 15 6 8 1016.1 - 0.0
31/06:00pm 18.9 17.6 13.7 72 3.0 NNW 13 19 7 10 1015.9 1015.9 0.0
31/05:30pm 19.6 17.2 13.8 69 3.3 N 19 26 10 14 1015.6 - 0.0
31/05:00pm 20.1 16.6 15.5 75 2.7 N 28 33 15 18 1015.4 1015.4 0.0
31/04:30pm 20.6 17.1 15.6 73 3.0 N 28 32 15 17 1015.3 - 0.0
31/04:00pm 21.0 17.5 15.5 71 3.3 N 28 32 15 17 1015.4 1015.4 0.0
31/03:30pm 21.8 18.6 15.4 67 3.8 NNE 26 30 14 16 1015.4 - 0.0
31/03:00pm 22.1 17.4 13.2 57 5.1 NNE 30 37 16 20 1015.5 1015.5 0.0
31/02:30pm 22.9 18.7 11.0 47 6.6 NNE 24 30 13 16 1015.5 - 0.0
31/02:00pm 23.4 19.0 10.5 44 7.1 NNE 24 30 13 16 1015.9 1015.9 0.0
31/01:30pm 24.7 20.0 6.0 30 9.6 N 20 28 11 15 1016.3 - 0.0
31/01:00pm 24.1 19.5 6.4 32 9.1 N 20 32 11 17 1017.0 1017.0 0.0
31/12:30pm 24.2 19.0 5.5 30 9.5 N 22 30 12 16 1017.8 - 0.0
31/12:00pm 23.2 18.0 3.7 28 9.5 N 20 28 11 15 1018.4 1018.4 0.0
31/11:30am 22.6 17.8 4.6 31 8.9 N 19 28 10 15 1019.1 - 0.0
31/11:00am 21.8 17.0 4.4 32 8.5 NNW 19 26 10 14 1019.9 1019.9 0.0
31/10:30am 20.9 14.9 3.2 31 8.4 NW 24 30 13 16 1020.4 - 0.0
31/10:00am 19.6 15.4 5.6 40 6.9 NW 17 20 9 11 1020.8 1020.8 0.0
31/09:30am 17.2 13.2 8.4 56 4.5 NNW 19 24 10 13 1021.0 - 0.0
31/09:00am 15.8 13.6 9.5 66 3.3 NNW 11 15 6 8 1021.0 1021.0 0.2
31/08:30am 13.9 12.6 9.9 77 2.1 NNW 7 9 4 5 1020.9 - 0.2
31/08:00am 11.9 10.4 9.3 84 1.3 NNW 7 9 4 5 1020.6 1020.6 0.2
31/07:30am 10.0 6.8 8.4 90 0.8 WNW 15 17 8 9 1020.2 - 0.0
31/07:00am 9.4 5.3 8.8 96 0.3 WNW 20 24 11 13 1019.9 1019.9 0.0
31/06:30am 9.4 7.1 8.9 97 0.2 NW 11 17 6 9 1019.8 - 0.0
31/06:00am 10.0 6.4 9.7 98 0.1 NW 19 20 10 11 1019.6 1019.6 0.0
31/05:30am 9.8 5.9 9.3 97 0.2 NW 20 24 11 13 1019.5 - 0.0
31/05:00am 10.1 6.7 9.3 95 0.4 NW 17 19 9 10 1019.3 1019.3 0.0
31/04:30am 10.9 8.5 10.1 95 0.4 NW 13 17 7 9 1019.2 - 0.0
31/04:00am 11.4 9.4 10.3 93 0.6 NW 11 13 6 7 1019.2 1019.2 0.0
31/03:30am 12.1 10.6 11.9 99 0.1 NW 11 13 6 7 1019.2 - 0.0
31/03:00am 10.3 8.8 9.1 92 0.6 W 7 7 4 4 1019.3 1019.3 0.0
31/02:30am 10.4 8.7 8.3 87 1.0 W 7 9 4 5 1019.4 - 0.0
31/02:00am 11.3 10.3 8.9 85 1.2 W 4 7 2 4 1019.5 1019.5 0.0
31/01:30am 10.8 9.4 8.7 87 1.0 W 6 7 3 4 1019.6 - 0.0
31/01:00am 12.0 10.6 9.6 85 1.2 W 7 9 4 5 1019.8 1019.8 0.0
31/12:30am 12.5 10.9 10.2 86 1.2 W 9 11 5 6 1019.9 - 0.0
31/12:00am 11.4 9.9 8.3 81 1.5 W 6 7 3 4 1020.0 1020.0 0.0
 
Date/Time
EST
Temp
°C
App
Temp
°C
Dew
Point
Rel
Hum
%
Delta-T
°C
Wind Press
QNH
hPa
Press
MSL
hPa
Rain
since 9 am
mm
Dir
 
Spd
km/h
Gust
km/h
Spd
kts
Gust
kts
30/11:30pm 12.2 10.1 8.3 77 1.9 SW 9 9 5 5 1020.3 - 0.0
30/11:00pm 12.9 11.0 9.2 78 1.9 WSW 9 11 5 6 1020.5 1020.5 0.0
30/10:30pm 13.0 10.8 7.9 71 2.5 W 9 9 5 5 1020.5 - 0.0
30/10:00pm 13.6 12.0 8.9 73 2.4 WSW 7 11 4 6 1020.7 1020.7 0.0
30/09:30pm 13.4 11.2 8.0 70 2.7 WSW 9 11 5 6 1020.8 - 0.0
30/09:00pm 14.2 12.0 9.2 72 2.5 W 11 13 6 7 1020.7 1020.7 0.0
30/08:30pm 14.6 12.5 9.8 73 2.5 WSW 11 13 6 7 1020.6 - 0.0
30/08:00pm 15.1 12.6 9.7 70 2.8 S 13 17 7 9 1020.5 1020.5 0.0
30/07:30pm 14.0 13.4 11.7 86 1.2 ENE 6 9 3 5 1020.3 - 0.0
30/07:00pm 14.2 13.8 11.0 81 1.7 ENE 4 6 2 3 1020.2 1020.2 0.0
30/06:30pm 14.3 14.3 9.9 75 2.3 CALM 0 0 0 0 1020.0 - 0.0
30/06:00pm 15.3 13.7 8.8 65 3.3 ENE 7 7 4 4 1019.8 1019.8 0.0
30/05:30pm 16.9 14.7 9.3 61 3.9 ENE 11 13 6 7 1019.5 - 0.0
30/05:00pm 19.0 16.9 11.1 60 4.3 NE 13 15 7 8 1019.2 1019.2 0.0
30/04:30pm 20.0 17.2 10.1 53 5.3 ENE 15 17 8 9 1018.8 - 0.0
30/04:00pm 20.6 17.1 8.9 47 6.2 ENE 17 19 9 10 1018.8 1018.8 0.0
30/03:30pm 21.2 18.0 9.8 48 6.1 ENE 17 19 9 10 1018.7 - 0.0
30/03:00pm 21.5 18.2 9.4 46 6.5 ENE 17 19 9 10 1018.6 1018.6 0.0

Other Formats:

Comma delimited format used in spreadsheet applications
http://www.bom.gov.au/fwo/IDQ60801/IDQ60801.94580.axf

JavaScript Object Notation format (JSON) in row-major order
http://www.bom.gov.au/fwo/IDQ60801/IDQ60801.94580.json